Time;durP1;ratioP1;P1;durP2;ratioP2;P2;SDS_P1;SDS_P2;PMS_P1;PMS_P2;Temp;Humidity;BMP_temperature;BMP_pressure;BME280_temperature;BME280_humidity;BME280_pressure;Samples;Min_cycle;Max_cycle;Signal;HPM_P1;HPM_P2
2022/04/12 00:07:15;;;;;;;101.40;51.20;;;;;;;3.03;70.90;98894.91;432555;1270;108795;-41
2022/04/12 00:27:48;;;;;;;167.60;77.30;;;;;;;2.98;71.03;98882.54;432579;1270;112538;-41
2022/04/12 00:37:56;;;;;;;193.60;92.70;;;;;;;2.66;71.03;98883.25;432573;1270;108868;-40
2022/04/12 00:48:03;;;;;;;167.60;83.80;;;;;;;2.33;71.32;98875.38;432569;1271;98017;-41
2022/04/12 00:58:11;;;;;;;147.60;69.50;;;;;;;2.14;71.49;98879.73;432535;1271;112262;-43
2022/04/12 01:08:19;;;;;;;107.30;56.70;;;;;;;2.16;71.89;98889.26;432568;1270;108770;-39
2022/04/12 01:18:26;;;;;;;92.80;49.60;;;;;;;2.22;71.98;98891.51;433199;1260;98046;-41
2022/04/12 01:28:34;;;;;;;92.50;48.50;;;;;;;2.27;72.03;98890.77;432710;1270;108111;-43
2022/04/12 01:38:40;;;;;;;92.80;50.20;;;;;;;2.34;72.17;98896.99;432477;1270;99248;-41
2022/04/12 01:48:49;;;;;;;112.40;59.70;;;;;;;2.37;72.30;98902.36;432600;1271;111247;-40
2022/04/12 01:58:57;;;;;;;111.70;56.50;;;;;;;2.27;72.26;98905.96;432659;1270;108896;-40
2022/04/12 02:09:04;;;;;;;116.30;59.70;;;;;;;2.13;72.39;98914.23;432527;1270;99276;-41
2022/04/12 02:19:11;;;;;;;98.50;51.00;;;;;;;1.99;72.45;98916.73;432555;1270;112605;-41
2022/04/12 02:29:18;;;;;;;86.00;50.90;;;;;;;1.88;72.50;98931.43;433017;1271;108432;-41
2022/04/12 02:39:25;;;;;;;97.90;49.40;;;;;;;1.83;72.88;98931.40;433177;1271;99155;-41
2022/04/12 02:49:32;;;;;;;125.70;64.40;;;;;;;1.78;72.98;98936.70;433283;1269;108918;-40
2022/04/12 02:59:40;;;;;;;125.30;68.70;;;;;;;1.50;72.99;98939.52;432989;1271;99379;-42
2022/04/12 03:09:47;;;;;;;138.90;73.50;;;;;;;1.21;73.01;98937.77;433129;1270;112485;-40
2022/04/12 03:19:54;;;;;;;141.10;70.80;;;;;;;1.01;73.34;98942.84;433310;1270;108873;-41
2022/04/12 03:30:00;;;;;;;130.50;66.20;;;;;;;0.87;73.50;98943.10;433091;1269;99247;-40
2022/04/12 03:40:09;;;;;;;117.30;63.10;;;;;;;0.85;73.71;98942.00;432696;1271;113512;-40
2022/04/12 03:50:16;;;;;;;105.30;56.20;;;;;;;0.85;73.64;98940.02;433319;1269;108620;-42
2022/04/12 04:00:23;;;;;;;108.80;55.30;;;;;;;0.72;73.62;98939.96;433333;1269;99263;-40
2022/04/12 04:10:29;;;;;;;108.70;55.20;;;;;;;0.43;73.49;98953.59;433303;1269;108904;-40
2022/04/12 04:20:36;;;;;;;108.20;55.30;;;;;;;0.09;73.52;98964.55;433138;1270;99251;-40
2022/04/12 04:40:50;;;;;;;139.80;72.80;;;;;;;0.13;74.23;98976.95;433189;1269;108866;-40
2022/04/12 04:50:57;;;;;;;153.10;75.60;;;;;;;0.58;74.44;98982.78;433190;1269;99254;-39
2022/04/12 05:01:04;;;;;;;114.30;62.10;;;;;;;1.19;74.74;98985.19;433432;1269;112452;-41
2022/04/12 05:11:11;;;;;;;146.30;77.30;;;;;;;2.82;74.97;98988.70;433196;1271;109100;-42
2022/04/12 05:21:20;;;;;;;143.40;71.60;;;;;;;4.53;74.58;98993.71;433111;1269;99270;-41
2022/04/12 05:31:27;;;;;;;153.60;76.90;;;;;;;5.93;73.85;99007.05;433120;1269;108863;-41
2022/04/12 05:41:39;;;;;;;125.60;65.70;;;;;;;7.12;73.32;99013.09;433273;1270;97980;-41
2022/04/12 05:51:46;;;;;;;100.60;53.50;;;;;;;8.12;72.47;99021.75;433206;1269;112498;-41
2022/04/12 06:01:53;;;;;;;72.90;40.60;;;;;;;8.94;71.42;99024.17;433083;1270;108782;-41
2022/04/12 06:12:00;;;;;;;87.30;47.70;;;;;;;9.63;70.03;99028.15;433669;1270;99350;-42
2022/04/12 06:22:08;;;;;;;69.60;40.20;;;;;;;10.50;68.75;99035.51;433385;1270;108816;-41
2022/04/12 06:32:15;;;;;;;72.40;41.30;;;;;;;11.36;67.30;99031.78;433545;1269;99293;-43
2022/04/12 06:42:22;;;;;;;53.00;31.60;;;;;;;11.81;65.78;99039.86;433559;1270;111426;-44
2022/04/12 06:52:29;;;;;;;38.20;24.30;;;;;;;11.76;64.27;99046.73;433744;1269;108772;-41
2022/04/12 07:02:37;;;;;;;51.80;28.50;;;;;;;11.23;62.23;99062.11;433445;1268;99261;-42
2022/04/12 07:12:46;;;;;;;52.90;27.70;;;;;;;11.23;61.46;99061.41;433598;1269;108931;-42
2022/04/12 07:22:53;;;;;;;37.70;21.00;;;;;;;11.19;60.14;99063.48;433762;1270;99237;-40
2022/04/12 07:33:01;;;;;;;39.60;20.50;;;;;;;11.39;59.72;99064.29;433565;1271;112319;-42
2022/04/12 07:43:05;;;;;;;28.20;18.30;;;;;;;11.83;59.14;99062.45;433423;1270;109405;-42
2022/04/12 07:53:12;;;;;;;20.30;10.60;;;;;;;12.49;57.98;99072.70;433608;1269;99378;-44
2022/04/12 08:13:26;;;;;;;13.60;7.10;;;;;;;12.73;54.78;99080.45;433485;1269;99289;-41
2022/04/12 08:23:34;;;;;;;10.20;6.60;;;;;;;12.44;52.62;99080.55;433601;1270;112438;-41
2022/04/12 08:33:41;;;;;;;9.50;6.60;;;;;;;12.73;52.00;99084.23;433429;1271;108938;-43
2022/04/12 08:43:52;;;;;;;9.70;5.40;;;;;;;12.13;50.79;99093.61;433667;1270;99278;-40
2022/04/12 08:54:01;;;;;;;9.70;5.10;;;;;;;12.01;48.63;99091.56;433604;1270;108958;-42
2022/04/12 09:04:08;;;;;;;10.50;5.50;;;;;;;12.10;48.52;99094.96;433660;1269;99294;-41
2022/04/12 09:14:16;;;;;;;8.90;5.50;;;;;;;12.44;47.56;99089.10;433371;1269;468294;-42
2022/04/12 09:24:24;;;;;;;8.50;4.80;;;;;;;12.54;46.92;99084.77;433345;1271;109896;-41
2022/04/12 09:34:31;;;;;;;9.50;4.40;;;;;;;12.90;47.38;99075.67;433558;1270;99251;-42
2022/04/12 09:45:03;;;;;;;8.90;4.80;;;;;;;12.95;45.25;99069.36;433427;1271;108365;-45
2022/04/12 09:55:11;;;;;;;5.40;4.00;;;;;;;13.21;45.52;99067.88;433539;1270;98832;-41
2022/04/12 10:05:39;;;;;;;9.30;4.80;;;;;;;12.96;44.07;99062.89;433568;1269;111919;-42
2022/04/12 10:15:46;;;;;;;6.20;4.50;;;;;;;12.58;44.20;99065.23;433425;1270;108836;-41
2022/04/12 10:25:57;;;;;;;8.50;5.40;;;;;;;12.93;43.55;99053.27;433414;1271;99254;-41
2022/04/12 10:36:06;;;;;;;7.60;5.30;;;;;;;12.68;42.87;99049.09;433511;1271;108999;-41
2022/04/12 10:56:18;;;;;;;11.40;6.00;;;;;;;11.92;42.22;99044.69;433583;1268;112658;-40
2022/04/12 11:06:27;;;;;;;11.00;5.10;;;;;;;12.00;42.14;99041.55;433428;1269;108644;-41
2022/04/12 11:16:48;;;;;;;10.40;5.00;;;;;;;12.26;42.42;99037.09;433526;1268;99245;-44
2022/04/12 11:27:02;;;;;;;13.80;5.50;;;;;;;12.16;40.85;99038.22;433457;1270;112500;-43
2022/04/12 11:37:10;;;;;;;8.10;4.80;;;;;;;12.03;40.17;99036.36;433625;1269;107931;-41
2022/04/12 11:47:18;;;;;;;9.00;4.70;;;;;;;12.03;40.05;99033.10;433647;1270;99379;-45
2022/04/12 11:57:26;;;;;;;9.50;5.40;;;;;;;12.32;40.67;99026.40;433613;1269;108948;-42
2022/04/12 12:17:41;;;;;;;8.40;4.70;;;;;;;12.47;39.76;99015.52;433411;1270;112577;-41
2022/04/12 12:27:49;;;;;;;9.10;4.50;;;;;;;12.46;40.37;99011.42;433309;1269;108788;-41
2022/04/12 12:38:04;;;;;;;5.80;4.70;;;;;;;12.67;39.69;98999.31;433531;1269;99260;-41
2022/04/12 12:48:15;;;;;;;6.10;4.40;;;;;;;12.51;39.18;98997.79;433739;1269;107602;-41
2022/04/12 12:58:29;;;;;;;7.90;5.10;;;;;;;12.63;39.84;98986.29;433581;1269;99266;-40
2022/04/12 13:08:36;;;;;;;6.60;4.00;;;;;;;12.60;38.32;98989.13;433620;1271;112516;-42
2022/04/12 13:18:43;;;;;;;7.00;4.40;;;;;;;12.56;38.15;98982.46;433350;1271;108599;-44
2022/04/12 13:28:51;;;;;;;7.20;4.10;;;;;;;12.76;37.92;98982.56;433244;1270;98409;-41
2022/04/12 13:38:57;;;;;;;7.10;3.70;;;;;;;12.63;37.80;98989.52;432606;1270;109082;-41
2022/04/12 13:49:05;;;;;;;5.90;3.50;;;;;;;12.64;37.85;98983.42;433249;1271;99236;-41
2022/04/12 13:59:12;;;;;;;5.80;3.50;;;;;;;12.66;36.87;98976.84;433316;1271;111443;-42
2022/04/12 14:09:20;;;;;;;7.20;3.80;;;;;;;12.70;37.57;98978.28;433155;1271;108686;-42
2022/04/12 14:19:27;;;;;;;9.40;3.70;;;;;;;12.66;37.22;98974.77;433135;1271;98889;-45
2022/04/12 14:29:34;;;;;;;7.40;3.90;;;;;;;12.61;37.27;98974.63;433206;1270;108744;-44
2022/04/12 14:39:43;;;;;;;7.50;4.10;;;;;;;12.66;37.34;98978.57;433209;1269;98023;-41
2022/04/12 14:49:50;;;;;;;5.90;3.50;;;;;;;12.53;37.11;98977.67;433228;1269;111040;-43
2022/04/12 14:59:58;;;;;;;12.20;4.50;;;;;;;12.57;37.47;98975.96;433020;1271;108835;-42
2022/04/12 15:10:04;;;;;;;8.50;4.10;;;;;;;12.49;37.96;98977.70;433622;1269;98457;-45
2022/04/12 15:30:16;;;;;;;9.20;4.40;;;;;;;12.45;38.33;98975.22;433613;1271;98850;-43
2022/04/12 15:40:25;;;;;;;8.10;4.00;;;;;;;12.20;37.76;98972.25;433479;1271;112298;-43
2022/04/12 15:50:32;;;;;;;6.00;3.90;;;;;;;12.05;38.21;98964.60;433596;1271;107445;-44
2022/04/12 16:00:40;;;;;;;8.60;3.90;;;;;;;11.93;38.59;98967.41;433618;1270;99346;-41
2022/04/12 16:10:46;;;;;;;6.10;3.50;;;;;;;11.82;38.71;98968.77;433435;1271;108544;-43
2022/04/12 16:20:53;;;;;;;6.40;4.10;;;;;;;11.65;38.87;98970.63;433495;1271;99285;-42
2022/04/12 16:31:00;;;;;;;9.50;3.90;;;;;;;11.55;39.03;98974.02;433518;1271;112999;-45
2022/04/12 16:41:07;;;;;;;7.10;4.10;;;;;;;11.44;38.97;98979.86;433501;1271;109172;-44
2022/04/12 16:51:15;;;;;;;8.70;4.30;;;;;;;11.24;38.90;98991.23;433373;1270;99260;-42
2022/04/12 17:01:22;;;;;;;10.40;4.60;;;;;;;11.00;39.54;98999.23;433376;1270;109629;-43
2022/04/12 17:11:29;;;;;;;9.60;5.30;;;;;;;10.69;39.82;99007.30;433546;1270;99264;-44
2022/04/12 17:31:44;;;;;;;16.10;7.40;;;;;;;10.02;40.86;99016.10;433380;1269;108791;-43
2022/04/12 17:41:52;;;;;;;16.60;9.40;;;;;;;9.70;41.37;99020.55;433613;1269;98870;-42
2022/04/12 17:51:59;;;;;;;20.60;9.90;;;;;;;9.35;41.86;99030.36;433428;1271;108712;-42
2022/04/12 18:02:10;;;;;;;21.80;11.10;;;;;;;9.01;42.51;99037.59;433493;1271;98077;-45
2022/04/12 18:12:18;;;;;;;48.70;24.90;;;;;;;8.69;43.02;99054.69;433747;1268;111559;-41
2022/04/12 18:22:25;;;;;;;44.20;24.30;;;;;;;8.46;43.65;99068.81;433578;1269;108826;-41
2022/04/12 18:32:35;;;;;;;41.50;22.80;;;;;;;8.23;44.20;99072.36;433500;1271;98024;-41
2022/04/12 18:42:42;;;;;;;34.40;18.80;;;;;;;7.97;44.93;99076.09;433619;1270;111350;-44
2022/04/12 18:52:50;;;;;;;70.20;26.00;;;;;;;7.50;45.87;99076.05;433513;1269;108847;-45
2022/04/12 19:02:57;;;;;;;34.00;14.00;;;;;;;7.29;46.27;99077.00;433454;1270;99372;-44
2022/04/12 19:13:05;;;;;;;22.50;10.90;;;;;;;7.40;46.66;99075.79;433668;1270;112567;-43
2022/04/12 19:33:20;;;;;;;25.60;12.90;;;;;;;7.53;46.71;99082.13;433707;1270;98840;-45
2022/04/12 19:53:34;;;;;;;48.60;20.30;;;;;;;7.30;46.87;99086.77;433713;1270;109327;-41
2022/04/12 20:03:43;;;;;;;31.00;14.60;;;;;;;7.11;47.06;99090.45;433534;1270;99277;-45
2022/04/12 20:13:50;;;;;;;26.50;13.90;;;;;;;7.00;47.24;99098.45;433699;1269;111415;-46
2022/04/12 20:23:58;;;;;;;23.10;13.40;;;;;;;6.87;47.37;99094.95;433479;1269;108979;-44
2022/04/12 20:34:05;;;;;;;25.20;13.50;;;;;;;6.70;47.64;99097.73;432571;1270;98416;-44
2022/04/12 20:44:12;;;;;;;35.10;15.30;;;;;;;6.59;47.93;99104.68;433507;1271;112472;-44
2022/04/12 20:54:19;;;;;;;30.40;14.70;;;;;;;6.49;48.12;99109.34;433496;1269;108825;-44
2022/04/12 21:04:26;;;;;;;36.30;16.70;;;;;;;6.32;48.50;99108.67;433563;1271;98021;-41
2022/04/12 21:14:34;;;;;;;30.60;17.10;;;;;;;6.12;48.74;99111.94;431254;1271;3175691;-41
2022/04/12 21:24:41;;;;;;;32.40;16.50;;;;;;;5.94;49.02;99106.21;433584;1270;109273;-41
2022/04/12 21:34:48;;;;;;;34.60;16.50;;;;;;;5.80;49.35;99105.74;433666;1271;98030;-43
2022/04/12 21:55:03;;;;;;;32.60;16.30;;;;;;;5.67;49.60;99093.15;433812;1269;108567;-44
2022/04/12 22:05:11;;;;;;;28.50;12.40;;;;;;;5.53;49.75;99086.14;433467;1271;98030;-41
2022/04/12 22:15:19;;;;;;;21.40;12.60;;;;;;;5.37;50.08;99084.79;433531;1269;109071;-43
2022/04/12 22:25:29;;;;;;;29.10;13.20;;;;;;;5.25;50.28;99078.30;433696;1270;98033;-44
2022/04/12 22:35:37;;;;;;;26.60;13.30;;;;;;;5.14;50.52;99089.13;433586;1268;111509;-43
2022/04/12 22:45:44;;;;;;;24.20;12.40;;;;;;;4.98;50.91;99088.36;433674;1270;108748;-43
2022/04/12 22:55:52;;;;;;;26.10;13.70;;;;;;;4.86;51.22;99088.02;433638;1269;99137;-43
2022/04/12 23:06:00;;;;;;;33.10;16.90;;;;;;;4.80;51.47;99097.60;433702;1269;113249;-43
2022/04/12 23:16:04;;;;;;;32.00;14.80;;;;;;;4.70;51.65;99100.09;433678;1269;108934;-40
2022/04/12 23:26:12;;;;;;;27.50;15.50;;;;;;;4.53;52.17;99099.45;433607;1270;99301;-43
2022/04/12 23:36:19;;;;;;;30.10;15.90;;;;;;;4.43;52.62;99104.72;433682;1269;112412;-44
2022/04/12 23:46:26;;;;;;;35.50;19.10;;;;;;;4.35;53.00;99111.70;433634;1270;108804;-42
2022/04/12 23:56:34;;;;;;;45.20;20.40;;;;;;;4.03;53.19;99110.41;433494;1269;98280;-47
